Time;durP1;ratioP1;P1;durP2;ratioP2;P2;SDS_P1;SDS_P2;PMS_P1;PMS_P2;Temp;Humidity;BMP_temperature;BMP_pressure;BME280_temperature;BME280_humidity;BME280_pressure;Samples;Min_cycle;Max_cycle;Signal;HPM_P1;HPM_P2
2023/05/06 00:00:34;;;;;;;0.70;0.70;;;;;;;18.08;57.66;96745.00;10387476;28;20413;-30
2023/05/06 00:05:35;;;;;;;1.83;1.33;;;;;;;18.25;59.53;96752.63;10400387;28;20034;-31
2023/05/06 00:10:36;;;;;;;1.98;1.35;;;;;;;18.38;64.16;96749.28;10396682;28;20040;-29
2023/05/06 00:15:36;;;;;;;1.27;0.90;;;;;;;18.38;60.11;96744.22;10386183;28;20041;-30
2023/05/06 00:20:36;;;;;;;1.07;0.93;;;;;;;18.29;60.43;96741.63;10377604;28;20105;-30
2023/05/06 00:25:37;;;;;;;1.20;0.80;;;;;;;18.21;60.05;96745.84;10379622;28;20296;-29
2023/05/06 00:30:37;;;;;;;2.13;1.10;;;;;;;18.15;58.05;96735.72;10385185;28;20390;-30
2023/05/06 00:35:37;;;;;;;1.20;1.00;;;;;;;18.19;57.94;96750.06;10408170;28;20481;-30
2023/05/06 00:40:38;;;;;;;1.20;1.03;;;;;;;18.17;57.53;96739.09;10394832;28;20300;-30
2023/05/06 00:45:39;;;;;;;1.20;0.80;;;;;;;18.15;57.07;96726.41;10400772;28;20034;-30
2023/05/06 00:50:39;;;;;;;0.85;0.65;;;;;;;18.16;57.42;96724.75;10408559;28;20034;-32
2023/05/06 00:55:40;;;;;;;1.25;1.02;;;;;;;18.16;57.13;96717.16;10389392;28;20041;-29
2023/05/06 01:00:41;;;;;;;1.27;0.85;;;;;;;18.17;57.21;96728.97;10384635;28;20030;-30
2023/05/06 01:06:07;;;;;;;2.75;1.83;;;;;;;18.32;64.97;96734.91;10383942;28;20050;-30
2023/05/06 01:11:18;;;;;;;2.92;1.80;;;;;;;18.40;65.39;96722.28;10378856;28;20445;-30
2023/05/06 01:16:21;;;;;;;1.50;1.10;;;;;;;18.33;60.41;96718.03;10383946;28;20030;-30
2023/05/06 01:21:25;;;;;;;1.95;0.70;;;;;;;18.27;57.54;96723.06;10417180;28;20045;-30
2023/05/06 01:26:26;;;;;;;1.10;1.00;;;;;;;18.22;57.78;96724.72;10397348;28;20041;-30
2023/05/06 01:31:41;;;;;;;1.35;1.20;;;;;;;18.20;57.42;96721.34;10384003;28;20037;-29
2023/05/06 01:37:22;;;;;;;0.98;0.82;;;;;;;18.19;57.74;96727.28;10385657;28;20030;-30
2023/05/06 01:42:24;;;;;;;0.95;0.85;;;;;;;18.18;57.45;96725.59;10384098;28;20037;-31
2023/05/06 01:47:25;;;;;;;2.00;0.77;;;;;;;18.16;57.39;96714.63;10377693;28;20076;-30
2023/05/06 01:52:26;;;;;;;1.77;1.10;;;;;;;18.16;57.27;96712.09;10389993;28;20084;-30
2023/05/06 01:57:27;;;;;;;0.93;0.82;;;;;;;18.17;57.13;96712.06;10385742;28;20490;-29
2023/05/06 02:02:27;;;;;;;3.22;1.48;;;;;;;18.19;59.76;96710.41;10391411;28;20050;-31
2023/05/06 02:07:28;;;;;;;3.37;1.80;;;;;;;18.36;64.52;96705.34;10390054;28;20029;-30
2023/05/06 02:12:29;;;;;;;1.35;1.25;;;;;;;18.40;61.97;96710.41;10388937;28;20502;-30
2023/05/06 02:17:30;;;;;;;1.35;1.05;;;;;;;18.32;60.05;96706.22;10389006;28;20034;-30
2023/05/06 02:22:31;;;;;;;1.00;0.90;;;;;;;18.26;57.69;96713.78;10382017;28;20035;-30
2023/05/06 02:27:31;;;;;;;1.25;1.15;;;;;;;18.21;57.72;96720.50;10382908;28;20042;-30
2023/05/06 02:32:31;;;;;;;1.17;1.07;;;;;;;18.19;57.44;96717.13;10405440;28;20041;-31
2023/05/06 02:37:32;;;;;;;0.85;0.85;;;;;;;18.18;57.48;96715.44;10387877;28;20038;-30
2023/05/06 02:42:36;;;;;;;1.02;0.80;;;;;;;18.16;57.46;96712.91;10400281;28;20544;-30
2023/05/06 02:47:36;;;;;;;1.33;0.90;;;;;;;18.16;57.30;96707.00;10396295;28;20049;-30
2023/05/06 02:52:37;;;;;;;1.02;0.80;;;;;;;18.11;57.10;96693.47;10407923;28;20030;-29
2023/05/06 02:57:38;;;;;;;1.02;0.80;;;;;;;18.12;57.26;96695.16;10398682;28;20061;-30
2023/05/06 03:02:38;;;;;;;1.48;1.17;;;;;;;18.19;59.79;96694.34;10435785;28;20051;-30
2023/05/06 03:07:39;;;;;;;1.63;1.43;;;;;;;18.36;64.44;96695.22;10412535;28;20496;-30
2023/05/06 03:12:39;;;;;;;2.08;1.60;;;;;;;18.38;62.78;96690.97;10413271;28;20294;-30
2023/05/06 03:17:40;;;;;;;1.67;1.10;;;;;;;18.34;60.69;96691.84;10394828;28;20038;-30
2023/05/06 03:22:41;;;;;;;0.98;0.88;;;;;;;18.24;58.24;96697.72;10393623;28;20323;-31
2023/05/06 03:27:42;;;;;;;0.93;0.70;;;;;;;18.19;57.83;96687.59;10426384;28;20509;-30
2023/05/06 03:32:50;;;;;;;1.45;1.13;;;;;;;18.17;57.79;96688.44;10387501;28;20038;-30
2023/05/06 03:37:57;;;;;;;0.80;0.80;;;;;;;18.15;57.73;96680.00;10398267;28;20092;-30
2023/05/06 03:43:00;;;;;;;2.13;1.10;;;;;;;18.14;57.29;96679.13;10379935;28;20036;-30
2023/05/06 03:48:01;;;;;;;0.70;0.60;;;;;;;18.11;57.48;96679.13;10380882;28;20039;-30
2023/05/06 03:53:05;;;;;;;0.90;0.73;;;;;;;18.14;57.39;96678.28;10412847;28;20119;-32
2023/05/06 03:58:07;;;;;;;1.13;0.80;;;;;;;18.14;57.47;96690.94;10404372;28;20521;-30
2023/05/06 04:03:08;;;;;;;1.65;1.20;;;;;;;18.15;60.04;96680.00;10402275;28;20038;-31
2023/05/06 04:08:16;;;;;;;1.80;1.42;;;;;;;18.34;64.49;96684.25;10406766;28;20033;-29
2023/05/06 04:13:18;;;;;;;3.08;1.20;;;;;;;18.37;62.03;96686.75;10379761;28;20025;-30
2023/05/06 04:18:19;;;;;;;1.85;1.00;;;;;;;18.28;60.01;96687.59;10372886;28;20049;-30
2023/05/06 04:23:27;;;;;;;1.35;0.90;;;;;;;18.21;58.23;96693.50;10391165;28;20030;-29
2023/05/06 04:28:30;;;;;;;0.70;0.70;;;;;;;18.17;57.69;96701.09;10384577;28;20034;-30
2023/05/06 04:33:31;;;;;;;0.88;0.75;;;;;;;18.15;57.66;96697.72;10389563;28;20033;-30
2023/05/06 04:38:34;;;;;;;0.80;0.80;;;;;;;18.14;57.62;96704.47;10388553;28;20034;-30
2023/05/06 04:43:35;;;;;;;0.93;0.82;;;;;;;18.13;57.40;96692.66;10392817;28;20045;-30
2023/05/06 04:48:43;;;;;;;1.38;0.70;;;;;;;18.11;57.27;96693.47;10391047;28;20133;-30
2023/05/06 04:53:45;;;;;;;0.73;0.70;;;;;;;18.12;57.45;96692.63;10394242;28;20604;-29
2023/05/06 04:58:46;;;;;;;0.80;0.80;;;;;;;18.10;57.19;96696.88;10372046;28;20048;-29
2023/05/06 05:03:47;;;;;;;2.00;1.17;;;;;;;18.14;59.63;96693.47;10400265;28;20038;-30
2023/05/06 05:08:47;;;;;;;1.40;1.00;;;;;;;18.33;60.63;96690.97;10383909;28;20060;-30
2023/05/06 05:13:48;;;;;;;3.17;1.47;;;;;;;18.39;62.66;96687.59;10399182;28;20046;-30
2023/05/06 05:18:48;;;;;;;1.15;0.85;;;;;;;18.34;60.33;96707.06;10399635;28;20402;-30
2023/05/06 05:23:53;;;;;;;2.42;1.30;;;;;;;18.22;58.47;96687.59;10390295;28;20034;-29
2023/05/06 05:28:54;;;;;;;1.37;0.83;;;;;;;18.17;57.79;96694.31;10392699;28;20033;-30
2023/05/06 05:33:56;;;;;;;1.17;0.80;;;;;;;18.15;57.54;96695.19;10400521;28;20363;-30
2023/05/06 05:38:57;;;;;;;2.75;0.90;;;;;;;18.11;57.08;96701.09;10399167;28;20026;-30
2023/05/06 05:43:59;;;;;;;0.77;0.65;;;;;;;18.10;58.45;96701.94;10400889;28;20037;-30
2023/05/06 05:49:00;;;;;;;0.75;0.70;;;;;;;18.10;57.37;96705.31;10395102;28;20029;-31
2023/05/06 05:54:01;;;;;;;0.90;0.80;;;;;;;18.08;57.34;96701.91;10376794;28;20520;-30
2023/05/06 05:59:02;;;;;;;0.82;0.65;;;;;;;18.08;57.41;96694.31;10407880;28;20029;-31
2023/05/06 06:04:03;;;;;;;2.70;0.88;;;;;;;18.03;57.49;96690.94;10374707;28;20030;-31
2023/05/06 06:09:04;;;;;;;1.95;1.20;;;;;;;18.30;63.82;96710.41;10397763;28;20510;-29
2023/05/06 06:14:04;;;;;;;1.40;1.20;;;;;;;18.37;64.00;96699.44;10396758;28;20040;-30
2023/05/06 06:19:05;;;;;;;1.70;1.00;;;;;;;18.35;59.53;96708.75;10385414;28;20533;-29
2023/05/06 06:24:06;;;;;;;1.38;0.82;;;;;;;18.25;59.62;96727.28;10397627;28;20116;-29
2023/05/06 06:29:07;;;;;;;1.77;1.20;;;;;;;18.19;58.72;96719.66;10396008;28;20026;-30
2023/05/06 06:34:08;;;;;;;3.33;0.90;;;;;;;18.16;57.69;96738.25;10378883;28;20512;-29
2023/05/06 06:39:08;;;;;;;1.65;1.02;;;;;;;18.14;57.36;96724.72;10399478;28;20026;-31
2023/05/06 06:44:09;;;;;;;1.30;1.10;;;;;;;18.12;57.60;96730.63;10392334;28;20402;-30
2023/05/06 06:49:09;;;;;;;3.33;1.10;;;;;;;18.11;57.47;96734.00;10400974;28;20124;-30
2023/05/06 06:54:09;;;;;;;0.93;0.73;;;;;;;18.10;57.57;96727.25;10422480;28;20406;-30
2023/05/06 06:59:10;;;;;;;1.33;1.00;;;;;;;18.09;58.20;96726.41;10422068;28;20289;-29
2023/05/06 07:04:10;;;;;;;3.28;1.30;;;;;;;18.09;57.48;96720.50;10371711;28;20040;-30
2023/05/06 07:09:12;;;;;;;4.37;1.37;;;;;;;18.24;60.71;96721.38;10395467;28;20041;-30
2023/05/06 07:14:12;;;;;;;1.63;1.02;;;;;;;18.37;62.66;96722.25;10371605;28;20064;-30
2023/05/06 07:19:12;;;;;;;0.73;0.73;;;;;;;18.37;60.21;96728.19;10375287;28;20032;-30
2023/05/06 07:24:13;;;;;;;1.17;0.88;;;;;;;18.28;59.92;96739.94;10390847;28;20041;-30
2023/05/06 07:29:13;;;;;;;4.07;1.47;;;;;;;18.24;60.17;96746.69;10396839;28;20033;-30
2023/05/06 07:34:14;;;;;;;3.50;1.27;;;;;;;18.16;58.05;96738.25;10393590;28;20077;-29
2023/05/06 07:39:14;;;;;;;3.25;1.58;;;;;;;18.17;59.14;96739.09;10395298;28;20417;-30
2023/05/06 07:44:15;;;;;;;6.90;1.52;;;;;;;18.17;60.96;96749.25;10401731;28;20112;-29
2023/05/06 07:49:15;;;;;;;2.67;0.80;;;;;;;18.12;57.85;96745.84;10421642;28;20021;-30
2023/05/06 07:54:15;;;;;;;2.88;0.88;;;;;;;18.10;57.46;96747.53;10396968;28;20535;-30
2023/05/06 07:59:16;;;;;;;8.53;1.70;;;;;;;18.03;58.25;96750.88;10397355;28;20033;-29
2023/05/06 08:04:16;;;;;;;6.83;2.10;;;;;;;18.10;59.82;96750.06;10402043;28;20135;-30
2023/05/06 08:09:16;;;;;;;4.60;2.47;;;;;;;18.21;63.15;96745.84;10372757;28;20053;-30
2023/05/06 08:14:17;;;;;;;8.67;2.40;;;;;;;18.33;63.53;96745.91;10399393;28;20041;-29
2023/05/06 08:19:17;;;;;;;2.87;2.57;;;;;;;18.34;64.09;96752.69;10420191;28;20515;-30
2023/05/06 08:24:17;;;;;;;4.37;2.77;;;;;;;18.28;63.01;96757.69;10415591;28;20025;-29
2023/05/06 08:29:18;;;;;;;4.63;2.57;;;;;;;18.25;63.83;96753.47;10389263;28;20036;-30
2023/05/06 08:34:20;;;;;;;3.57;1.77;;;;;;;18.20;60.52;96754.31;10404604;28;20041;-30
2023/05/06 08:39:20;;;;;;;3.85;1.83;;;;;;;18.18;60.39;96756.00;10393183;28;20025;-30
2023/05/06 08:44:23;;;;;;;3.73;2.13;;;;;;;18.14;58.65;96751.75;10394035;28;20033;-30
2023/05/06 08:49:24;;;;;;;3.60;1.23;;;;;;;18.10;58.13;96750.94;10376985;28;20429;-30
2023/05/06 08:54:27;;;;;;;2.15;0.80;;;;;;;18.09;57.96;96746.66;10398736;28;20029;-30
2023/05/06 08:59:30;;;;;;;4.53;1.33;;;;;;;18.07;57.68;96743.28;10396482;28;20402;-30
2023/05/06 09:04:30;;;;;;;3.88;1.40;;;;;;;18.09;57.57;96745.84;10401445;28;20037;-30
2023/05/06 09:09:31;;;;;;;6.55;1.98;;;;;;;18.19;61.76;96748.41;10390260;28;20037;-30
2023/05/06 09:14:31;;;;;;;3.93;1.40;;;;;;;18.37;61.61;96735.78;10381697;28;20033;-30
2023/05/06 09:19:37;;;;;;;4.10;1.10;;;;;;;18.44;60.60;96729.88;10386994;28;20528;-30
2023/05/06 09:24:37;;;;;;;11.17;2.73;;;;;;;18.33;60.89;96726.47;10388828;28;20040;-31
2023/05/06 09:29:38;;;;;;;3.35;1.25;;;;;;;18.25;60.38;96728.13;10393294;28;20041;-29
2023/05/06 09:34:40;;;;;;;9.18;2.15;;;;;;;18.19;58.52;96717.13;10381419;28;20050;-30
2023/05/06 09:39:41;;;;;;;6.85;1.30;;;;;;;18.15;57.85;96712.94;10381170;28;20034;-30
2023/05/06 09:44:43;;;;;;;3.00;1.20;;;;;;;18.13;57.95;96717.13;10370080;28;20425;-30
2023/05/06 09:49:44;;;;;;;14.07;2.35;;;;;;;18.09;57.63;96711.19;10367294;28;20056;-30
2023/05/06 09:54:45;;;;;;;4.63;1.25;;;;;;;18.08;57.74;96713.75;10389347;28;20045;-30
2023/05/06 09:59:46;;;;;;;6.82;1.30;;;;;;;18.07;57.91;96707.00;10375395;28;20041;-30
2023/05/06 10:04:48;;;;;;;13.90;1.42;;;;;;;18.06;57.65;96706.13;10374634;28;20080;-30
2023/05/06 10:09:50;;;;;;;3.03;1.15;;;;;;;18.06;58.09;96685.00;10390834;28;20498;-29
2023/05/06 10:14:50;;;;;;;4.03;1.27;;;;;;;18.30;60.72;96692.66;10384815;28;20157;-30
2023/05/06 10:19:55;;;;;;;4.28;1.27;;;;;;;18.41;61.30;96678.31;10397907;28;20029;-29
2023/05/06 10:25:11;;;;;;;3.03;0.80;;;;;;;18.35;59.81;96683.38;10381475;28;20045;-30
2023/05/06 10:30:13;;;;;;;5.15;0.90;;;;;;;18.23;59.80;96673.19;10392877;28;20524;-30
2023/05/06 10:35:21;;;;;;;4.90;0.75;;;;;;;18.14;58.06;96653.78;10384744;28;20061;-30
2023/05/06 10:40:22;;;;;;;3.67;0.90;;;;;;;18.12;57.97;96660.56;10380587;28;20078;-28
2023/05/06 10:45:23;;;;;;;1.90;0.90;;;;;;;18.10;57.66;96656.31;10380625;28;20029;-30
2023/05/06 10:50:26;;;;;;;1.48;1.17;;;;;;;18.07;57.46;96646.19;10394876;28;20033;-30
2023/05/06 10:55:32;;;;;;;2.25;1.15;;;;;;;18.07;57.51;96647.03;10383336;28;20450;-30
2023/05/06 11:00:33;;;;;;;2.53;0.90;;;;;;;18.07;57.42;96653.81;10390422;28;20087;-30
2023/05/06 11:05:50;;;;;;;1.65;0.75;;;;;;;18.06;57.46;96644.47;10395927;28;20289;-29
2023/05/06 11:10:54;;;;;;;2.42;0.88;;;;;;;18.04;57.63;96647.03;10392321;28;20062;-31
2023/05/06 11:15:57;;;;;;;1.17;0.85;;;;;;;18.25;59.51;96652.09;10378300;28;20519;-29
2023/05/06 11:21:04;;;;;;;1.75;1.20;;;;;;;18.39;61.97;96650.44;10381122;28;20038;-31
2023/05/06 11:26:06;;;;;;;1.35;0.63;;;;;;;18.36;59.31;96639.47;10382414;28;20037;-30
2023/05/06 11:31:08;;;;;;;0.80;0.68;;;;;;;18.24;59.49;96641.97;10392428;28;20034;-30
2023/05/06 11:36:13;;;;;;;1.38;1.10;;;;;;;18.18;58.95;96634.38;10379057;28;20109;-30
2023/05/06 11:41:15;;;;;;;1.20;0.90;;;;;;;18.12;57.56;96630.16;10390762;28;20025;-31
2023/05/06 11:46:18;;;;;;;1.92;0.73;;;;;;;18.10;57.83;96633.53;10370147;28;20088;-30
2023/05/06 11:51:22;;;;;;;1.67;1.20;;;;;;;18.09;57.67;96629.31;10379128;28;20100;-30
2023/05/06 11:56:23;;;;;;;1.95;0.80;;;;;;;18.08;57.66;96622.56;10370206;28;20026;-30
2023/05/06 12:01:24;;;;;;;1.90;0.77;;;;;;;18.06;57.59;96620.00;10386211;28;20448;-30
2023/05/06 12:06:33;;;;;;;0.70;0.60;;;;;;;18.07;57.54;96620.88;10385439;28;20094;-30
2023/05/06 12:11:34;;;;;;;0.98;0.80;;;;;;;18.06;57.65;96619.16;10379777;28;20044;-29
2023/05/06 12:16:36;;;;;;;1.85;1.13;;;;;;;18.22;60.02;96620.84;10386567;28;20042;-30
2023/05/06 12:21:37;;;;;;;1.90;1.10;;;;;;;18.35;62.29;96612.44;10369640;28;20061;-31
2023/05/06 12:26:45;;;;;;;1.40;1.00;;;;;;;18.37;59.89;96610.72;10384904;28;20064;-30
2023/05/06 12:31:47;;;;;;;0.55;0.55;;;;;;;18.26;59.62;96612.41;10384510;28;20481;-30
2023/05/06 12:36:47;;;;;;;0.90;0.77;;;;;;;18.19;58.90;96608.19;10377775;28;20037;-30
2023/05/06 12:41:48;;;;;;;1.00;0.73;;;;;;;18.13;58.17;96600.56;10380417;28;20425;-30
2023/05/06 12:46:51;;;;;;;1.50;0.60;;;;;;;18.11;57.69;96602.28;10367992;28;20046;-29
2023/05/06 12:52:09;;;;;;;0.77;0.70;;;;;;;18.08;57.74;96598.03;10380116;28;20034;-30
2023/05/06 12:57:09;;;;;;;1.10;1.00;;;;;;;17.99;57.80;96585.38;10388466;28;20022;-29
2023/05/06 13:02:11;;;;;;;2.17;0.50;;;;;;;18.06;57.63;96583.69;10367970;28;20037;-32
2023/05/06 13:07:11;;;;;;;1.08;0.68;;;;;;;18.05;57.56;96594.66;10367861;28;20026;-30
2023/05/06 13:12:11;;;;;;;0.70;0.70;;;;;;;18.04;57.54;96587.91;10371197;28;20030;-29
2023/05/06 13:17:13;;;;;;;1.30;0.80;;;;;;;18.15;60.95;96581.19;10383798;28;20032;-30
2023/05/06 13:22:13;;;;;;;1.65;1.10;;;;;;;18.33;61.66;96586.25;10379728;28;20296;-31
2023/05/06 13:27:14;;;;;;;1.80;0.73;;;;;;;18.38;59.04;96571.84;10370635;28;20042;-31
2023/05/06 13:32:16;;;;;;;0.93;0.70;;;;;;;18.31;59.21;96576.09;10367308;28;20121;-30
2023/05/06 13:37:17;;;;;;;0.88;0.80;;;;;;;18.21;59.45;96574.41;10390570;28;20373;-29
2023/05/06 13:42:17;;;;;;;1.02;0.60;;;;;;;18.15;58.09;96564.25;10378544;28;20103;-30
2023/05/06 13:47:17;;;;;;;1.37;0.67;;;;;;;18.12;57.93;96558.34;10373400;28;20037;-30
2023/05/06 13:52:18;;;;;;;0.47;0.40;;;;;;;18.09;57.65;96550.78;10384629;28;20087;-29
2023/05/06 13:57:18;;;;;;;1.60;0.88;;;;;;;18.08;57.73;96551.63;10377785;28;20018;-29
2023/05/06 14:02:19;;;;;;;0.97;0.80;;;;;;;18.06;57.68;96543.16;10382823;28;20108;-29
2023/05/06 14:07:19;;;;;;;1.15;0.55;;;;;;;18.05;57.53;96539.78;10379475;28;20408;-30
2023/05/06 14:12:21;;;;;;;1.75;0.85;;;;;;;18.05;57.61;96538.94;10377513;28;20026;-30
2023/05/06 14:17:22;;;;;;;1.10;1.00;;;;;;;18.06;57.68;96538.94;10390200;28;20040;-30
2023/05/06 14:22:22;;;;;;;0.85;0.65;;;;;;;18.29;59.57;96541.44;10374119;28;20137;-30
2023/05/06 14:27:22;;;;;;;0.63;0.63;;;;;;;18.38;60.31;96526.22;10390344;28;20037;-29
2023/05/06 14:32:23;;;;;;;1.80;0.87;;;;;;;18.32;59.06;96523.75;10376109;28;20121;-30
2023/05/06 14:37:23;;;;;;;1.07;0.57;;;;;;;18.22;59.20;96524.53;10396720;28;20036;-30
2023/05/06 14:42:23;;;;;;;0.80;0.80;;;;;;;18.16;58.32;96527.13;10381602;28;20065;-30
2023/05/06 14:47:24;;;;;;;0.63;0.43;;;;;;;18.13;58.00;96522.88;10372386;28;20034;-29
2023/05/06 14:52:24;;;;;;;0.60;0.60;;;;;;;18.10;57.70;96519.50;10389400;28;20041;-29
2023/05/06 14:57:25;;;;;;;0.80;0.50;;;;;;;18.08;57.74;96526.28;10400212;28;20660;-30
2023/05/06 15:02:25;;;;;;;0.70;0.70;;;;;;;18.07;57.57;96519.53;10372004;28;20501;-30
2023/05/06 15:07:25;;;;;;;0.77;0.60;;;;;;;18.06;57.52;96515.28;10380497;28;20121;-30
2023/05/06 15:12:26;;;;;;;0.60;0.60;;;;;;;18.06;57.66;96522.88;10383252;28;20292;-29
2023/05/06 15:17:26;;;;;;;0.73;0.70;;;;;;;18.04;57.49;96525.44;10388364;28;20045;-30
2023/05/06 15:22:27;;;;;;;0.90;0.80;;;;;;;18.25;59.10;96519.50;10377242;28;20048;-30
2023/05/06 15:27:30;;;;;;;0.77;0.70;;;;;;;18.38;61.22;96521.16;10388338;28;20043;-30
2023/05/06 15:32:31;;;;;;;0.70;0.50;;;;;;;18.36;59.22;96522.88;10372775;28;20498;-30
2023/05/06 15:37:32;;;;;;;1.87;0.60;;;;;;;18.25;59.32;96532.16;10371107;28;20025;-30
2023/05/06 15:42:36;;;;;;;1.00;0.60;;;;;;;18.17;58.59;96531.34;10383529;28;20127;-30
2023/05/06 15:47:36;;;;;;;0.68;0.65;;;;;;;18.14;57.86;96526.25;10370144;28;20045;-30
2023/05/06 15:52:37;;;;;;;0.83;0.47;;;;;;;18.10;57.64;96522.06;10386330;28;20037;-30
2023/05/06 15:57:37;;;;;;;0.47;0.40;;;;;;;18.07;57.60;96520.34;10391523;28;20029;-31
2023/05/06 16:02:38;;;;;;;0.50;0.50;;;;;;;18.05;57.36;96519.53;10369677;28;20058;-31
2023/05/06 16:07:38;;;;;;;0.87;0.60;;;;;;;18.06;57.45;96518.69;10369594;28;20052;-29
2023/05/06 16:12:38;;;;;;;0.77;0.60;;;;;;;18.04;57.52;96515.31;10386001;28;20034;-30
2023/05/06 16:17:39;;;;;;;0.40;0.40;;;;;;;18.04;57.47;96501.78;10377530;28;20084;-29
2023/05/06 16:22:39;;;;;;;2.38;0.55;;;;;;;18.16;59.73;96509.38;10376837;28;20041;-30
2023/05/06 16:27:40;;;;;;;0.50;0.50;;;;;;;18.33;58.79;96508.50;10388803;28;20133;-30
2023/05/06 16:32:41;;;;;;;0.85;0.68;;;;;;;18.40;58.68;96506.81;10368532;28;20380;-30
2023/05/06 16:37:44;;;;;;;0.60;0.60;;;;;;;18.31;58.77;96504.28;10384981;28;20071;-30
2023/05/06 16:42:44;;;;;;;0.60;0.47;;;;;;;18.21;58.81;96497.53;10379838;28;20041;-29
2023/05/06 16:47:45;;;;;;;0.88;0.70;;;;;;;18.17;57.89;96498.41;10376640;28;20042;-30
2023/05/06 16:52:45;;;;;;;0.70;0.55;;;;;;;18.13;57.60;96499.22;10376520;28;20498;-31
2023/05/06 16:57:45;;;;;;;0.37;0.37;;;;;;;18.09;57.37;96489.97;10379779;28;20033;-30
2023/05/06 17:02:46;;;;;;;0.53;0.50;;;;;;;18.07;57.63;96484.91;10367687;28;20291;-30
2023/05/06 17:07:46;;;;;;;0.73;0.55;;;;;;;18.06;57.30;96482.34;10393037;28;20489;-30
2023/05/06 17:12:47;;;;;;;0.50;0.50;;;;;;;18.05;57.20;96486.59;10387343;28;20040;-30
2023/05/06 17:17:47;;;;;;;0.33;0.30;;;;;;;18.04;57.18;96477.31;10367401;28;20788;-31
2023/05/06 17:22:48;;;;;;;0.50;0.50;;;;;;;18.03;57.50;96488.28;10398431;28;20529;-30
2023/05/06 17:27:49;;;;;;;1.40;0.70;;;;;;;18.24;59.63;96483.16;10387196;28;20073;-30
2023/05/06 17:32:49;;;;;;;0.50;0.50;;;;;;;18.39;62.10;96487.38;10400257;28;20048;-30
2023/05/06 17:37:50;;;;;;;0.90;0.77;;;;;;;18.35;59.46;96483.16;10392115;28;20435;-29
2023/05/06 17:42:50;;;;;;;0.60;0.47;;;;;;;18.27;57.04;96482.31;10402176;28;20303;-30
2023/05/06 17:47:51;;;;;;;2.60;0.40;;;;;;;18.22;57.25;96487.41;10375544;28;20125;-30
2023/05/06 17:52:53;;;;;;;0.30;0.30;;;;;;;18.20;57.44;96491.63;10383480;28;20038;-29
2023/05/06 17:57:53;;;;;;;0.50;0.50;;;;;;;18.19;56.73;96497.56;10390632;28;20045;-29
2023/05/06 18:02:54;;;;;;;0.40;0.40;;;;;;;18.17;57.09;96498.41;10374467;28;20502;-29
2023/05/06 18:07:54;;;;;;;0.50;0.50;;;;;;;18.17;57.17;96498.41;10401727;28;20412;-30
2023/05/06 18:12:56;;;;;;;0.77;0.40;;;;;;;18.16;57.33;96504.31;10409046;28;20389;-29
2023/05/06 18:17:56;;;;;;;0.52;0.30;;;;;;;18.16;56.91;96506.84;10373907;28;20080;-29
2023/05/06 18:22:57;;;;;;;0.30;0.30;;;;;;;18.15;56.97;96510.22;10376441;28;20636;-30
2023/05/06 18:27:57;;;;;;;0.52;0.52;;;;;;;18.24;59.11;96523.72;10385197;28;20441;-30
2023/05/06 18:32:58;;;;;;;0.60;0.50;;;;;;;18.39;61.49;96520.31;10381752;28;20457;-30
2023/05/06 18:37:58;;;;;;;0.50;0.50;;;;;;;18.44;59.97;96528.75;10402519;28;20061;-30
2023/05/06 18:42:58;;;;;;;1.07;0.67;;;;;;;18.33;57.68;96527.94;10373042;28;20042;-29
2023/05/06 18:47:59;;;;;;;0.30;0.30;;;;;;;18.25;57.26;96524.56;10383450;28;20048;-30
2023/05/06 18:52:59;;;;;;;0.40;0.30;;;;;;;18.22;57.28;96524.53;10379618;28;20414;-30
2023/05/06 18:58:04;;;;;;;0.53;0.40;;;;;;;18.18;57.25;96538.09;10392343;28;20296;-30
2023/05/06 19:03:07;;;;;;;0.40;0.38;;;;;;;18.18;57.04;96543.16;10372211;28;20086;-30
2023/05/06 19:08:08;;;;;;;0.50;0.50;;;;;;;18.16;57.27;96545.69;10385037;28;20029;-30
2023/05/06 19:13:08;;;;;;;0.35;0.35;;;;;;;18.13;57.18;96539.78;10389167;28;20037;-30
2023/05/06 19:18:10;;;;;;;1.60;0.93;;;;;;;18.15;57.23;96551.59;10371693;28;20040;-30
2023/05/06 19:23:10;;;;;;;0.50;0.43;;;;;;;18.13;57.15;96545.69;10380250;28;20113;-30
2023/05/06 19:28:10;;;;;;;0.30;0.30;;;;;;;18.13;57.44;96550.75;10378536;28;20044;-30
2023/05/06 19:33:13;;;;;;;0.77;0.67;;;;;;;18.34;59.23;96550.75;10389658;28;20386;-30
2023/05/06 19:38:13;;;;;;;0.90;0.80;;;;;;;18.42;61.68;96550.75;10379101;28;20543;-30
2023/05/06 19:43:14;;;;;;;0.60;0.47;;;;;;;18.36;59.53;96545.69;10386083;28;20038;-31
2023/05/06 19:48:14;;;;;;;0.50;0.50;;;;;;;18.27;57.56;96550.75;10390848;28;20029;-29
2023/05/06 19:53:15;;;;;;;0.35;0.35;;;;;;;18.22;57.39;96550.75;10400775;28;20285;-30
2023/05/06 19:58:16;;;;;;;0.50;0.43;;;;;;;18.18;57.40;96545.69;10380180;28;20038;-30
2023/05/06 20:03:16;;;;;;;0.40;0.30;;;;;;;18.16;57.22;96544.84;10379905;28;20300;-30
2023/05/06 20:08:17;;;;;;;0.55;0.55;;;;;;;18.16;57.30;96544.84;10382188;28;20511;-30
2023/05/06 20:13:17;;;;;;;0.40;0.40;;;;;;;18.14;57.35;96541.44;10394203;28;20501;-30
2023/05/06 20:18:18;;;;;;;0.38;0.38;;;;;;;18.13;57.02;96550.75;10379237;28;20527;-31
2023/05/06 20:23:18;;;;;;;0.73;0.50;;;;;;;18.14;57.12;96544.00;10398781;28;20037;-30
2023/05/06 20:28:18;;;;;;;0.43;0.40;;;;;;;18.12;57.00;96538.94;10389834;28;20033;-30
2023/05/06 20:33:19;;;;;;;0.40;0.40;;;;;;;18.26;59.03;96526.25;10375308;28;20030;-30
2023/05/06 20:38:19;;;;;;;0.40;0.40;;;;;;;18.39;60.65;96527.91;10394410;28;20033;-31
2023/05/06 20:43:20;;;;;;;0.43;0.35;;;;;;;18.42;59.62;96535.53;10381170;28;20668;-31
2023/05/06 20:48:21;;;;;;;0.50;0.45;;;;;;;18.29;59.77;96526.22;10373889;28;20049;-30
2023/05/06 20:53:22;;;;;;;0.57;0.33;;;;;;;18.22;57.64;96532.16;10373558;28;20046;-29
2023/05/06 20:58:22;;;;;;;0.30;0.30;;;;;;;18.19;57.29;96533.03;10393663;28;20557;-30
2023/05/06 21:03:23;;;;;;;0.37;0.37;;;;;;;18.17;57.30;96528.81;10385695;28;20048;-30
2023/05/06 21:08:24;;;;;;;0.50;0.50;;;;;;;18.14;57.25;96531.31;10396830;28;20029;-29
2023/05/06 21:13:24;;;;;;;1.50;0.50;;;;;;;18.14;57.13;96531.31;10382217;28;20041;-30
2023/05/06 21:18:24;;;;;;;0.23;0.23;;;;;;;18.13;57.29;96517.81;10385807;28;20525;-30
2023/05/06 21:23:25;;;;;;;0.60;0.50;;;;;;;18.13;57.32;96530.50;10381671;28;20056;-30
2023/05/06 21:28:25;;;;;;;0.45;0.35;;;;;;;18.12;57.15;96536.41;10385619;28;20292;-29
2023/05/06 21:33:28;;;;;;;0.60;0.50;;;;;;;18.16;59.20;96532.19;10379803;28;20030;-30
2023/05/06 21:38:28;;;;;;;0.60;0.60;;;;;;;18.35;60.76;96532.16;10379077;28;20038;-30
2023/05/06 21:43:29;;;;;;;0.40;0.40;;;;;;;18.42;59.30;96527.94;10387947;28;20041;-30
2023/05/06 21:48:30;;;;;;;0.57;0.52;;;;;;;18.33;59.53;96522.88;10370499;28;20034;-30
2023/05/06 21:53:30;;;;;;;0.40;0.40;;;;;;;18.22;57.68;96524.53;10378203;28;20493;-30
2023/05/06 21:58:31;;;;;;;0.52;0.40;;;;;;;18.18;57.39;96528.78;10390494;28;20037;-30
2023/05/06 22:03:31;;;;;;;0.40;0.40;;;;;;;18.15;57.36;96531.31;10388239;28;20117;-29
2023/05/06 22:08:31;;;;;;;0.20;0.20;;;;;;;18.15;57.39;96525.44;10385061;28;20072;-30
2023/05/06 22:13:32;;;;;;;0.40;0.40;;;;;;;18.13;57.35;96525.44;10397807;28;20048;-30
2023/05/06 22:18:34;;;;;;;0.33;0.33;;;;;;;18.12;57.16;96518.69;10374163;28;20818;-29
2023/05/06 22:23:35;;;;;;;0.38;0.38;;;;;;;18.10;57.18;96514.44;10399968;28;20049;-30
2023/05/06 22:28:35;;;;;;;0.80;0.60;;;;;;;18.09;57.04;96512.78;10403296;28;20399;-30
2023/05/06 22:33:35;;;;;;;0.50;0.40;;;;;;;18.10;57.16;96516.97;10389827;28;20128;-30
2023/05/06 22:38:36;;;;;;;0.40;0.40;;;;;;;18.32;59.87;96516.13;10388731;28;20482;-30
2023/05/06 22:43:36;;;;;;;0.50;0.50;;;;;;;18.44;60.37;96516.09;10388160;28;20486;-29
2023/05/06 22:48:36;;;;;;;0.40;0.40;;;;;;;18.35;59.31;96516.13;10380743;28;20300;-30
2023/05/06 22:53:37;;;;;;;0.30;0.30;;;;;;;18.24;58.12;96521.16;10373009;28;20053;-29
2023/05/06 22:58:37;;;;;;;0.50;0.50;;;;;;;18.18;57.41;96512.75;10401961;28;20848;-29
2023/05/06 23:03:38;;;;;;;0.50;0.40;;;;;;;18.14;57.29;96516.13;10398338;28;20029;-30
2023/05/06 23:08:38;;;;;;;0.40;0.40;;;;;;;18.13;57.30;96510.22;10374213;28;20045;-30
2023/05/06 23:13:38;;;;;;;0.30;0.30;;;;;;;18.11;57.32;96503.47;10384510;28;20156;-29
2023/05/06 23:18:39;;;;;;;0.73;0.60;;;;;;;18.10;57.19;96500.09;10387176;28;20036;-31